Terminal Aerodrome Forecast
Issued by NWS

Home | Current Version | Previous Version | Text Only | Print | Product List | Glossary On
Versions: 1 2 3 4 5 6 7 8 9 10 11 12 13 14 15 16 17 18
000
FTUS43 KDLH 280500
TAFHYR
TAF
KHYR 280520Z 2806/0106 21004KT P6SM SKC
     FM281900 19009G15KT P6SM SKC
     FM010300 19005KT P6SM VCSH SCT025 OVC040=

USA.gov is the U.S. government's official web portal to all federal, state and local government web resources and services.